Pagrindinis puslapis
METAR-TAF:

METAR-TAF

Oro uostai :

Reyes, Bolivija

platuma: 14-19S, ilguma: 067-23W, Aukštis: 140 m

Dabartinis oras

Ataskaita buvo paskelbta 5 valandos ir 22 minutes, ne 22:00 UTC
Vėjas 3 kt iš Pietryčių
Temperatūra 34°C
Drėgmė 53%
Slėgis 1006 hPa
Matomumas 10 km arba daugiau
Su prošvaistėmis ne aukštis 8000 ft

METAR: SLRY 212200Z 14003KT 9999 BKN080 34/23 Q1006

Laikas: 23:22 (03:22 UTC)


TAF: trūkstamas

Orai ataskaitas ir orų prognozės (METAR, TAF).

turimą stotys yra geltonos ir raudonos taškus žemėlapyje.

Perkelti pele per norėdami pamatyti stoties vardą.

Tada spustelėkite, norėdami matyti oro stebėjimo ir prognozės.

Norėdami pakeisti žemėlapį: spustelėkite ant žalios mygtukų su juodo kryžiaus žemyn,; žalią mygtuką su brūkšneliu, jei norite nutolinti; arba žalių rodyklių gretimoms žemėlapius.


METAR-TAF: